createdAt,value
2023-03-13T00:02:16.090Z,59.18
2023-03-13T00:04:45.210Z,59.08
2023-03-13T00:07:14.529Z,58.94
2023-03-13T00:09:43.812Z,58.64
2023-03-13T00:12:13.001Z,58.72
2023-03-13T00:14:42.504Z,58.83
2023-03-13T00:17:11.929Z,59.25
2023-03-13T00:19:40.926Z,59.58
2023-03-13T00:22:09.889Z,60.23
2023-03-13T00:24:39.072Z,60.43
2023-03-13T00:27:07.925Z,60.41
2023-03-13T00:29:37.115Z,60.26
2023-03-13T00:32:06.730Z,60.28
2023-03-13T00:34:35.865Z,60.44
2023-03-13T00:37:05.207Z,60.42
2023-03-13T00:39:34.425Z,60.08
2023-03-13T00:42:04.426Z,59.93
2023-03-13T00:44:33.140Z,59.97
2023-03-13T00:47:02.539Z,60.10
2023-03-13T00:49:31.180Z,60.10
2023-03-13T00:52:00.070Z,59.71
2023-03-13T00:54:29.226Z,59.57
2023-03-13T00:56:58.122Z,59.47
2023-03-13T00:59:26.883Z,59.31
2023-03-13T01:01:55.691Z,59.36
2023-03-13T01:04:24.722Z,59.17
2023-03-13T01:06:53.597Z,59.53
2023-03-13T01:09:22.396Z,59.48
2023-03-13T01:11:51.417Z,59.56
2023-03-13T01:14:20.943Z,59.87
2023-03-13T01:16:49.724Z,60.11
2023-03-13T01:19:19.948Z,60.08
2023-03-13T01:21:48.741Z,60.44
2023-03-13T01:24:19.695Z,60.56
2023-03-13T01:26:48.522Z,60.48
2023-03-13T01:29:17.516Z,60.44
2023-03-13T01:31:46.345Z,60.13
2023-03-13T01:34:15.151Z,60.14
2023-03-13T01:36:44.424Z,60.52
2023-03-13T01:39:13.267Z,60.88
2023-03-13T01:41:42.063Z,60.97
2023-03-13T01:44:26.592Z,60.95
2023-03-13T01:46:55.597Z,61.02
2023-03-13T01:49:33.769Z,61.21
2023-03-13T01:52:09.543Z,61.60
2023-03-13T01:54:44.195Z,61.55
2023-03-13T01:57:27.864Z,61.54
2023-03-13T02:00:08.594Z,61.12
2023-03-13T02:02:41.871Z,61.15
2023-03-13T02:05:11.136Z,61.51
2023-03-13T02:08:01.993Z,61.54
2023-03-13T02:10:34.312Z,61.58
2023-03-13T02:13:03.897Z,61.96
2023-03-13T02:15:34.532Z,62.31
2023-03-13T02:18:03.480Z,62.32
2023-03-13T02:20:32.265Z,62.05
2023-03-13T02:23:08.291Z,61.83
2023-03-13T02:25:49.736Z,61.96
2023-03-13T02:28:20.980Z,62.55
2023-03-13T02:30:53.036Z,62.69
2023-03-13T02:33:27.124Z,62.57
2023-03-13T02:35:57.542Z,62.39
2023-03-13T02:38:30.354Z,62.43
2023-03-13T02:41:02.263Z,62.61
2023-03-13T02:43:34.390Z,62.74
2023-03-13T02:46:05.779Z,63.00
2023-03-13T02:48:41.593Z,63.43
2023-03-13T02:51:26.529Z,63.76
2023-03-13T02:53:59.665Z,63.65
2023-03-13T02:56:32.411Z,63.73
2023-03-13T02:59:01.265Z,63.59
2023-03-13T03:01:31.038Z,63.92
2023-03-13T03:03:59.893Z,64.34
2023-03-13T03:06:29.132Z,64.10
2023-03-13T03:08:58.156Z,63.83
2023-03-13T03:11:27.108Z,63.47
2023-03-13T03:13:56.574Z,63.77
2023-03-13T03:16:25.612Z,63.81
2023-03-13T03:18:54.585Z,63.30
2023-03-13T03:21:24.373Z,62.82
2023-03-13T03:23:53.859Z,62.59
2023-03-13T03:26:22.823Z,62.30
2023-03-13T03:28:51.928Z,62.67
2023-03-13T03:31:21.256Z,62.89
2023-03-13T03:33:50.825Z,63.35
2023-03-13T03:36:24.046Z,63.67
2023-03-13T03:38:54.573Z,63.67
2023-03-13T03:41:23.592Z,63.75
2023-03-13T03:43:52.798Z,63.62
2023-03-13T03:46:21.819Z,63.47
2023-03-13T03:48:50.858Z,63.66
2023-03-13T03:51:19.762Z,63.65
2023-03-13T03:53:48.882Z,63.66
2023-03-13T03:56:17.983Z,63.62
2023-03-13T03:58:47.143Z,63.97
2023-03-13T04:01:16.791Z,64.51
2023-03-13T04:03:45.744Z,64.56
2023-03-13T04:06:14.897Z,64.48
2023-03-13T04:08:43.709Z,64.24
2023-03-13T04:11:13.103Z,64.32
2023-03-13T04:13:42.215Z,64.40
2023-03-13T04:16:11.962Z,63.60
2023-03-13T04:18:41.340Z,63.94
2023-03-13T04:21:10.403Z,65.01
2023-03-13T04:23:38.906Z,65.90
2023-03-13T04:26:07.943Z,66.36
2023-03-13T04:28:36.863Z,66.20
2023-03-13T04:31:07.523Z,66.15
2023-03-13T04:33:37.384Z,66.51
2023-03-13T04:36:06.706Z,66.84
2023-03-13T04:38:35.606Z,66.42
2023-03-13T04:41:04.705Z,66.18
2023-03-13T04:43:33.501Z,66.20
2023-03-13T04:46:02.566Z,66.39
2023-03-13T04:48:31.416Z,66.32
2023-03-13T04:51:00.356Z,65.88
2023-03-13T04:53:29.263Z,65.22
2023-03-13T04:55:58.458Z,64.75
2023-03-13T04:58:27.702Z,65.06
2023-03-13T05:00:57.531Z,65.20
2023-03-13T05:03:27.088Z,64.91
2023-03-13T05:05:56.252Z,65.02
2023-03-13T05:08:25.338Z,65.24
2023-03-13T05:10:54.746Z,65.11
2023-03-13T05:13:24.086Z,64.67
2023-03-13T05:15:53.278Z,64.83
2023-03-13T05:18:22.522Z,65.13
2023-03-13T05:20:51.760Z,64.71
2023-03-13T05:23:20.844Z,64.25
2023-03-13T05:25:49.781Z,64.46
2023-03-13T05:28:18.361Z,64.77
2023-03-13T05:30:47.281Z,65.09
2023-03-13T05:33:16.663Z,65.29
2023-03-13T05:35:47.127Z,64.74
2023-03-13T05:38:16.234Z,64.66
2023-03-13T05:40:45.242Z,65.41
2023-03-13T05:43:14.640Z,66.00
2023-03-13T05:45:43.867Z,65.99
2023-03-13T05:48:12.999Z,65.74
2023-03-13T05:50:42.143Z,65.69
2023-03-13T05:53:11.181Z,65.82
2023-03-13T05:55:39.970Z,66.34
2023-03-13T05:58:10.479Z,66.01
2023-03-13T06:00:39.477Z,65.45
2023-03-13T06:03:08.490Z,64.39
2023-03-13T06:05:37.484Z,62.71
2023-03-13T06:08:07.771Z,61.25
2023-03-13T06:10:36.846Z,60.93
2023-03-13T06:13:19.001Z,59.82
2023-03-13T06:15:57.059Z,58.16
2023-03-13T06:18:27.573Z,57.00
2023-03-13T06:20:59.957Z,55.91
2023-03-13T06:23:29.896Z,55.72
2023-03-13T06:25:58.798Z,55.29
2023-03-13T06:28:28.911Z,54.17
2023-03-13T06:31:05.803Z,53.99
2023-03-13T06:33:35.344Z,53.14
2023-03-13T06:36:05.139Z,51.74
2023-03-13T06:38:34.267Z,50.28
2023-03-13T06:41:03.322Z,49.36
2023-03-13T06:43:32.631Z,47.64
2023-03-13T06:46:05.926Z,46.54
2023-03-13T06:48:35.492Z,45.84
2023-03-13T06:51:05.064Z,44.64
2023-03-13T06:53:34.440Z,43.95
2023-03-13T06:56:03.411Z,43.48
2023-03-13T06:58:33.123Z,42.49
2023-03-13T07:01:10.602Z,41.39
2023-03-13T07:03:44.174Z,40.99
2023-03-13T07:06:13.915Z,40.48
2023-03-13T07:08:44.337Z,39.67
2023-03-13T07:11:14.982Z,38.70
2023-03-13T07:13:44.221Z,38.03
2023-03-13T07:16:14.902Z,36.98
2023-03-13T07:18:45.369Z,35.96
2023-03-13T07:21:15.173Z,34.95
2023-03-13T07:23:44.628Z,34.31
2023-03-13T07:26:15.590Z,33.70
2023-03-13T07:28:44.449Z,33.15
2023-03-13T07:31:18.043Z,32.74
2023-03-13T07:33:47.744Z,32.40
2023-03-13T07:36:17.041Z,31.66
2023-03-13T07:38:50.794Z,30.94
2023-03-13T07:41:20.986Z,30.47
2023-03-13T07:43:50.671Z,29.99
2023-03-13T07:46:22.343Z,29.53
2023-03-13T07:48:53.372Z,29.45
2023-03-13T07:51:42.211Z,29.02
2023-03-13T07:54:12.172Z,28.85
2023-03-13T07:56:41.485Z,28.19
2023-03-13T07:59:11.604Z,27.86
2023-03-13T08:01:41.553Z,27.79
2023-03-13T08:04:14.639Z,27.61
2023-03-13T08:06:43.645Z,27.93
2023-03-13T08:09:13.374Z,27.66
2023-03-13T08:11:44.870Z,27.26
2023-03-13T08:14:13.536Z,26.76
2023-03-13T08:16:42.726Z,25.68
2023-03-13T08:19:12.022Z,25.16
2023-03-13T08:21:41.131Z,24.84
2023-03-13T08:24:13.347Z,24.23
2023-03-13T08:26:43.719Z,23.95
2023-03-13T08:29:15.322Z,23.67
2023-03-13T08:31:48.168Z,23.45
2023-03-13T08:34:19.066Z,23.40
2023-03-13T08:36:49.329Z,22.91
2023-03-13T08:39:20.808Z,22.59
2023-03-13T08:41:50.514Z,22.36
2023-03-13T08:44:21.685Z,22.41
2023-03-13T08:46:51.072Z,22.19
2023-03-13T08:49:20.589Z,22.19
2023-03-13T08:51:49.555Z,22.22
2023-03-13T08:54:18.664Z,21.97
2023-03-13T08:56:47.973Z,22.17
2023-03-13T08:59:17.103Z,22.52
2023-03-13T09:01:45.945Z,22.42
2023-03-13T09:04:15.828Z,22.33
2023-03-13T09:06:45.295Z,22.70
2023-03-13T09:09:14.875Z,22.91
2023-03-13T09:11:44.353Z,22.42
2023-03-13T09:14:13.471Z,21.84
2023-03-13T09:16:43.302Z,21.79
2023-03-13T09:19:13.439Z,21.27
2023-03-13T09:21:42.485Z,20.56
2023-03-13T09:24:11.919Z,20.43
2023-03-13T09:26:46.514Z,20.30
2023-03-13T09:29:21.076Z,20.30
2023-03-13T09:31:50.009Z,20.16
2023-03-13T09:34:19.148Z,20.48
2023-03-13T09:36:48.266Z,20.13
2023-03-13T09:39:17.509Z,19.81
2023-03-13T09:42:03.377Z,19.55
2023-03-13T09:45:00.550Z,19.35
2023-03-13T09:47:51.386Z,19.17
2023-03-13T09:50:32.424Z,19.20
2023-03-13T09:53:16.170Z,18.98
2023-03-13T09:55:47.875Z,18.76
2023-03-13T09:58:23.733Z,18.56
2023-03-13T10:00:59.127Z,18.63
2023-03-13T10:03:41.995Z,18.42
2023-03-13T10:06:19.250Z,18.42
2023-03-13T10:08:49.105Z,18.17
2023-03-13T10:11:24.777Z,18.02
2023-03-13T10:14:16.573Z,18.06
2023-03-13T10:17:04.279Z,18.08
2023-03-13T10:19:42.772Z,18.07
2023-03-13T10:22:26.750Z,17.75
2023-03-13T10:25:05.957Z,17.10
2023-03-13T10:27:51.095Z,16.89
2023-03-13T10:30:27.488Z,16.89
2023-03-13T10:33:13.259Z,16.86
2023-03-13T10:35:44.845Z,16.90
2023-03-13T10:38:19.896Z,16.87
2023-03-13T10:41:07.050Z,17.17
2023-03-13T10:43:36.686Z,16.77
2023-03-13T10:46:09.659Z,16.77
2023-03-13T10:48:40.590Z,16.65
2023-03-13T10:51:23.120Z,16.83
2023-03-13T10:53:53.009Z,16.85
2023-03-13T10:56:30.846Z,17.16
2023-03-13T10:59:02.283Z,17.32
2023-03-13T11:01:45.555Z,17.32
2023-03-13T11:04:35.613Z,17.35
2023-03-13T11:07:06.507Z,17.44
2023-03-13T11:09:36.002Z,17.84
2023-03-13T11:12:21.467Z,17.49
2023-03-13T11:14:59.164Z,17.34
2023-03-13T11:17:38.625Z,17.43
2023-03-13T11:20:27.288Z,17.69
2023-03-13T11:23:25.107Z,17.93
2023-03-13T11:26:16.183Z,18.13
2023-03-13T11:29:08.042Z,17.90
2023-03-13T11:31:42.629Z,18.22
2023-03-13T11:34:18.435Z,17.63
2023-03-13T11:36:54.174Z,17.24
2023-03-13T11:39:35.313Z,17.35
2023-03-13T11:42:17.936Z,17.37
2023-03-13T11:44:57.137Z,17.37
2023-03-13T11:47:44.194Z,17.58
2023-03-13T11:50:31.733Z,17.64
2023-03-13T11:53:14.199Z,17.45
2023-03-13T11:55:57.713Z,17.57
2023-03-13T11:58:38.658Z,17.51
2023-03-13T12:01:30.783Z,17.67
2023-03-13T12:04:40.135Z,17.70
2023-03-13T12:07:29.040Z,17.61
2023-03-13T12:10:05.202Z,17.76
2023-03-13T12:12:44.184Z,17.75
2023-03-13T12:15:20.100Z,17.89
2023-03-13T12:18:04.625Z,17.98
2023-03-13T12:20:46.043Z,18.02
2023-03-13T12:23:20.152Z,18.21
2023-03-13T12:26:14.159Z,18.02
2023-03-13T12:29:01.740Z,18.41
2023-03-13T12:31:43.089Z,18.48
2023-03-13T12:34:24.203Z,18.83
2023-03-13T12:37:27.255Z,18.44
2023-03-13T12:40:10.364Z,18.45
2023-03-13T12:42:49.094Z,18.79
2023-03-13T12:45:22.248Z,18.67
2023-03-13T12:47:51.074Z,18.30
2023-03-13T12:50:27.386Z,18.36
2023-03-13T12:53:20.789Z,18.85
2023-03-13T12:56:19.069Z,19.75
2023-03-13T12:58:49.864Z,20.89
2023-03-13T13:01:25.938Z,21.80
2023-03-13T13:04:13.227Z,22.85
2023-03-13T13:06:56.980Z,24.07
2023-03-13T13:09:29.200Z,24.92
2023-03-13T13:12:20.508Z,24.88
2023-03-13T13:14:49.822Z,24.07
2023-03-13T13:17:57.106Z,24.01
2023-03-13T13:20:53.886Z,25.04
2023-03-13T13:23:25.397Z,25.22
2023-03-13T13:25:57.653Z,24.89
2023-03-13T13:28:36.420Z,24.44
2023-03-13T13:31:46.906Z,23.83
2023-03-13T13:34:31.591Z,24.62
2023-03-13T13:37:25.503Z,24.66
2023-03-13T13:39:55.679Z,24.92
2023-03-13T13:42:59.761Z,24.97
2023-03-13T13:45:32.649Z,25.12
2023-03-13T13:48:20.932Z,24.93
2023-03-13T13:51:12.302Z,25.10
2023-03-13T13:53:45.902Z,25.54
2023-03-13T13:56:27.035Z,24.85
2023-03-13T13:59:27.469Z,24.05
2023-03-13T14:02:10.411Z,23.89
2023-03-13T14:05:07.670Z,23.94
2023-03-13T14:07:49.116Z,24.21
2023-03-13T14:10:34.541Z,24.14
2023-03-13T14:13:18.484Z,23.79
2023-03-13T14:15:50.755Z,23.82
2023-03-13T14:18:25.067Z,23.36
2023-03-13T14:21:04.261Z,22.54
2023-03-13T14:23:47.873Z,21.98
2023-03-13T14:26:22.255Z,21.82
2023-03-13T14:28:53.363Z,21.34
2023-03-13T14:31:28.082Z,21.49
2023-03-13T14:34:01.990Z,21.95
2023-03-13T14:36:45.879Z,22.90
2023-03-13T14:39:33.585Z,23.95
2023-03-13T14:42:21.335Z,24.88
2023-03-13T14:44:50.599Z,25.56
2023-03-13T14:47:24.355Z,26.59
2023-03-13T14:50:05.076Z,27.03
2023-03-13T14:52:35.317Z,27.24
2023-03-13T14:55:26.110Z,27.69
2023-03-13T14:57:59.221Z,28.25
2023-03-13T15:00:46.384Z,28.72
2023-03-13T15:03:22.612Z,29.27
2023-03-13T15:06:11.192Z,29.76
2023-03-13T15:08:44.838Z,30.14
2023-03-13T15:11:43.373Z,30.53
2023-03-13T15:14:36.729Z,31.39
2023-03-13T15:17:14.977Z,31.80
2023-03-13T15:19:48.534Z,32.42
2023-03-13T15:22:19.547Z,32.84
2023-03-13T15:25:04.939Z,33.52
2023-03-13T15:27:35.488Z,34.01
2023-03-13T15:30:05.312Z,34.26
2023-03-13T15:32:40.333Z,34.34
2023-03-13T15:35:33.447Z,33.75
2023-03-13T15:38:03.584Z,33.35
2023-03-13T15:40:33.696Z,32.90
2023-03-13T15:43:03.567Z,32.65
2023-03-13T15:45:34.471Z,33.06
2023-03-13T15:48:07.020Z,33.32
2023-03-13T15:50:37.909Z,33.78
2023-03-13T15:53:19.674Z,34.54
2023-03-13T15:55:50.706Z,35.41
2023-03-13T15:58:20.671Z,36.21
2023-03-13T16:00:50.941Z,36.99
2023-03-13T16:03:26.332Z,38.07
2023-03-13T16:05:57.975Z,38.62
2023-03-13T16:08:36.215Z,38.76
2023-03-13T16:11:06.588Z,38.94
2023-03-13T16:13:36.662Z,39.17
2023-03-13T16:16:37.131Z,39.90
2023-03-13T16:19:08.088Z,40.52
2023-03-13T16:21:41.057Z,40.86
2023-03-13T16:24:11.479Z,41.51
2023-03-13T16:26:41.333Z,42.29
2023-03-13T16:29:15.876Z,42.76
2023-03-13T16:31:45.757Z,42.76
2023-03-13T16:34:15.274Z,43.11
2023-03-13T16:36:44.657Z,43.51
2023-03-13T16:39:17.112Z,44.04
2023-03-13T16:41:46.737Z,44.64
2023-03-13T16:44:15.560Z,44.99
2023-03-13T16:46:59.257Z,45.42
2023-03-13T16:49:33.825Z,45.66
2023-03-13T16:52:03.466Z,45.75
2023-03-13T16:54:35.228Z,45.89
2023-03-13T16:57:05.124Z,46.14
2023-03-13T16:59:34.763Z,46.41
2023-03-13T17:02:04.508Z,46.59
2023-03-13T17:04:34.552Z,46.76
2023-03-13T17:07:19.263Z,46.73
2023-03-13T17:09:49.112Z,47.17
2023-03-13T17:12:20.332Z,47.59
2023-03-13T17:14:49.518Z,47.85
2023-03-13T17:17:23.076Z,48.27
2023-03-13T17:19:52.681Z,48.35
2023-03-13T17:22:22.270Z,48.78
2023-03-13T17:24:51.736Z,48.83
2023-03-13T17:27:21.298Z,49.09
2023-03-13T17:29:50.447Z,49.16
2023-03-13T17:32:20.733Z,49.44
2023-03-13T17:34:49.785Z,49.72
2023-03-13T17:37:23.584Z,49.92
2023-03-13T17:39:52.979Z,50.23
2023-03-13T17:42:22.549Z,50.40
2023-03-13T17:44:53.130Z,50.61
2023-03-13T17:47:25.031Z,50.75
2023-03-13T17:49:54.936Z,51.07
2023-03-13T17:52:24.337Z,51.12
2023-03-13T17:54:54.580Z,51.16
2023-03-13T17:57:23.796Z,51.22
2023-03-13T17:59:53.565Z,50.99
2023-03-13T18:02:23.709Z,51.42
2023-03-13T18:04:54.098Z,51.50
2023-03-13T18:07:29.482Z,51.00
2023-03-13T18:09:59.911Z,50.71
2023-03-13T18:12:30.049Z,50.48
2023-03-13T18:14:59.234Z,50.40
2023-03-13T18:17:29.518Z,50.51
2023-03-13T18:19:58.593Z,50.52
2023-03-13T18:22:27.923Z,50.48
2023-03-13T18:24:57.217Z,50.50
2023-03-13T18:27:26.952Z,50.56
2023-03-13T18:29:56.397Z,50.72
2023-03-13T18:32:26.004Z,50.89
2023-03-13T18:34:56.069Z,51.08
2023-03-13T18:37:31.534Z,51.43
2023-03-13T18:40:01.723Z,51.45
2023-03-13T18:42:31.574Z,51.68
2023-03-13T18:45:03.666Z,51.73
2023-03-13T18:47:33.159Z,51.89
2023-03-13T18:50:02.959Z,51.95
2023-03-13T18:52:32.509Z,52.07
2023-03-13T18:55:02.389Z,52.26
2023-03-13T18:57:32.267Z,52.43
2023-03-13T19:00:03.055Z,52.52
2023-03-13T19:02:33.109Z,52.58
2023-03-13T19:05:02.570Z,52.62
2023-03-13T19:07:33.284Z,52.74
2023-03-13T19:10:04.083Z,53.01
2023-03-13T19:12:33.125Z,53.16
2023-03-13T19:15:02.593Z,53.12
2023-03-13T19:17:32.928Z,53.12
2023-03-13T19:20:02.943Z,53.07
2023-03-13T19:22:31.909Z,53.23
2023-03-13T19:25:03.834Z,53.55
2023-03-13T19:27:33.665Z,53.40
2023-03-13T19:30:02.708Z,53.33
2023-03-13T19:32:31.946Z,53.33
2023-03-13T19:35:01.789Z,53.36
2023-03-13T19:37:30.663Z,53.50
2023-03-13T19:40:01.543Z,53.55
2023-03-13T19:42:32.325Z,53.71
2023-03-13T19:45:02.104Z,53.83
2023-03-13T19:47:31.643Z,54.07
2023-03-13T19:50:01.699Z,54.18
2023-03-13T19:52:31.892Z,54.05
2023-03-13T19:55:05.366Z,54.04
2023-03-13T19:57:35.363Z,54.06
2023-03-13T20:00:06.697Z,54.18
2023-03-13T20:02:36.339Z,54.23
2023-03-13T20:05:07.470Z,54.26
2023-03-13T20:07:39.619Z,54.33
2023-03-13T20:10:09.909Z,54.33
2023-03-13T20:12:41.796Z,54.56
2023-03-13T20:15:13.844Z,54.62
2023-03-13T20:17:44.707Z,54.52
2023-03-13T20:20:15.781Z,54.56
2023-03-13T20:22:47.880Z,54.52
2023-03-13T20:25:17.908Z,54.59
2023-03-13T20:27:47.258Z,54.64
2023-03-13T20:30:19.776Z,54.67
2023-03-13T20:32:59.178Z,54.88
2023-03-13T20:35:29.633Z,55.06
2023-03-13T20:38:02.150Z,55.17
2023-03-13T20:40:33.686Z,55.02
2023-03-13T20:43:05.023Z,54.95
2023-03-13T20:45:36.757Z,54.90
2023-03-13T20:48:07.659Z,54.86
2023-03-13T20:50:37.438Z,54.73
2023-03-13T20:53:09.758Z,54.71
2023-03-13T20:55:42.632Z,54.74
2023-03-13T20:58:13.641Z,54.86
2023-03-13T21:00:45.096Z,55.35
2023-03-13T21:03:15.993Z,55.10
2023-03-13T21:05:46.497Z,54.74
2023-03-13T21:08:16.654Z,54.70
2023-03-13T21:10:46.729Z,54.72
2023-03-13T21:13:16.529Z,54.55
2023-03-13T21:15:46.756Z,54.61
2023-03-13T21:18:16.197Z,54.97
2023-03-13T21:20:46.809Z,54.91
2023-03-13T21:23:17.385Z,54.91
2023-03-13T21:25:54.343Z,54.62
2023-03-13T21:28:23.698Z,54.16
2023-03-13T21:30:54.485Z,53.75
2023-03-13T21:33:25.074Z,53.45
2023-03-13T21:35:54.842Z,53.24
2023-03-13T21:38:23.919Z,53.36
2023-03-13T21:40:54.100Z,53.53
2023-03-13T21:43:24.311Z,53.59
2023-03-13T21:45:53.588Z,53.61
2023-03-13T21:48:22.856Z,53.67
2023-03-13T21:50:53.530Z,53.80
2023-03-13T21:53:22.401Z,53.73
2023-03-13T21:55:53.357Z,54.06
2023-03-13T21:58:22.445Z,54.14
2023-03-13T22:00:55.634Z,54.07
2023-03-13T22:03:27.147Z,54.13
2023-03-13T22:05:56.636Z,54.07
2023-03-13T22:08:25.835Z,54.06
2023-03-13T22:10:55.626Z,54.35
2023-03-13T22:13:24.816Z,54.56
2023-03-13T22:15:54.204Z,54.57
2023-03-13T22:18:24.143Z,54.71
2023-03-13T22:20:53.338Z,55.03
2023-03-13T22:23:22.211Z,55.14
2023-03-13T22:25:51.905Z,54.95
2023-03-13T22:28:21.032Z,55.09
2023-03-13T22:30:50.543Z,55.16
2023-03-13T22:33:19.668Z,55.09
2023-03-13T22:35:54.974Z,55.15
2023-03-13T22:38:23.898Z,55.51
2023-03-13T22:41:07.928Z,55.76
2023-03-13T22:43:37.234Z,55.93
2023-03-13T22:46:07.596Z,55.93
2023-03-13T22:48:37.415Z,56.24
2023-03-13T22:51:10.323Z,56.38
2023-03-13T22:53:41.151Z,56.56
2023-03-13T22:56:12.595Z,56.74
2023-03-13T22:58:42.674Z,56.94
2023-03-13T23:01:17.368Z,57.16
2023-03-13T23:03:46.878Z,57.20
2023-03-13T23:06:18.275Z,57.25
2023-03-13T23:08:47.415Z,57.37
2023-03-13T23:11:17.153Z,57.45
2023-03-13T23:13:46.149Z,57.91
2023-03-13T23:16:15.592Z,58.09
2023-03-13T23:18:45.583Z,58.01
2023-03-13T23:21:16.931Z,58.03
2023-03-13T23:23:47.621Z,58.29
2023-03-13T23:26:17.216Z,58.36
2023-03-13T23:28:46.773Z,58.79
2023-03-13T23:31:21.935Z,58.72
2023-03-13T23:33:51.398Z,58.66
2023-03-13T23:36:20.772Z,58.69
2023-03-13T23:38:51.881Z,58.86
2023-03-13T23:41:22.129Z,59.21
2023-03-13T23:43:51.008Z,59.40
2023-03-13T23:46:26.790Z,59.25
2023-03-13T23:48:57.868Z,59.44
2023-03-13T23:51:27.835Z,59.46
2023-03-13T23:53:56.944Z,59.71
2023-03-13T23:56:26.269Z,59.96
2023-03-13T23:58:55.480Z,59.83
